Time;durP1;ratioP1;P1;durP2;ratioP2;P2;SDS_P1;SDS_P2;PMS_P1;PMS_P2;Temp;Humidity;BMP_temperature;BMP_pressure;BME280_temperature;BME280_humidity;BME280_pressure;Samples;Min_cycle;Max_cycle;Signal;HPM_P1;HPM_P2
2022/03/27 15:33:23;;;;;;;34.13;25.02;;;25.00;1.00;;;;;;5534081;23;20054;-60
2022/03/27 15:35:48;;;;;;;28.00;23.80;;;25.00;1.00;;;;;;4959141;28;20506;-61
2022/03/27 15:38:30;;;;;;;29.58;24.10;;;25.20;1.00;;;;;;4976752;28;20031;-54
2022/03/27 15:40:56;;;;;;;30.63;23.15;;;25.30;1.00;;;;;;4959220;28;20034;-62
2022/03/27 15:43:22;;;;;;;31.58;24.13;;;25.20;1.00;;;;;;4976678;28;20031;-60
2022/03/27 15:45:47;;;;;;;27.00;23.10;;;24.90;1.00;;;;;;4974892;28;20038;-54
2022/03/27 15:48:13;;;;;;;27.60;23.42;;;24.70;1.00;;;;;;4958489;28;20047;-51
2022/03/27 15:50:39;;;;;;;31.10;21.55;;;24.50;1.00;;;;;;4975774;28;20037;-57
2022/03/27 15:53:06;;;;;;;27.00;21.60;;;24.10;1.00;;;;;;4975872;28;20094;-60
2022/03/27 15:55:32;;;;;;;28.67;22.85;;;23.90;1.00;;;;;;4959058;28;20023;-63
2022/03/27 15:58:00;;;;;;;27.30;24.17;;;23.90;1.00;;;;;;4959126;28;20018;-64
2022/03/27 16:00:26;;;;;;;30.80;24.10;;;23.80;1.00;;;;;;4976441;28;20027;-63
2022/03/27 16:02:51;;;;;;;25.95;20.05;;;23.60;1.00;;;;;;4976477;28;20069;-63
2022/03/27 16:05:18;;;;;;;25.65;21.42;;;23.50;1.00;;;;;;4974672;28;20413;-63
2022/03/27 16:07:44;;;;;;;29.17;20.83;;;23.50;1.00;;;;;;4975415;28;20387;-56
2022/03/27 16:10:10;;;;;;;26.08;20.23;;;23.30;1.00;;;;;;4976262;28;20081;-51
2022/03/27 16:12:35;;;;;;;31.52;23.08;;;23.30;1.00;;;;;;4975606;28;20106;-52
2022/03/27 16:15:05;;;;;;;29.13;23.48;;;22.90;1.00;;;;;;4976031;28;20035;-52
2022/03/27 16:17:32;;;;;;;29.23;22.95;;;22.80;1.00;;;;;;4975996;28;20395;-52
2022/03/27 16:19:58;;;;;;;29.83;23.25;;;22.70;1.00;;;;;;4976026;28;20038;-54
2022/03/27 16:22:24;;;;;;;27.33;22.40;;;;;;;;;;4974977;28;20035;-39
2022/03/27 16:24:51;;;;;;;31.13;24.08;;;;;;;;;;4975392;28;20035;-38
2022/03/27 16:27:17;;;;;;;26.98;22.63;;;;;;;;;;4974577;28;20173;-38
2022/03/27 16:29:43;;;;;;;26.25;21.05;;;;;;;;;;4964886;28;20039;-39
2022/03/27 16:32:09;;;;;;;28.38;23.45;;;22.60;1.00;;;;;;4972559;28;20097;-39
2022/03/27 16:34:35;;;;;;;38.30;25.23;;;22.10;1.00;;;;;;4945961;28;20186;-38
2022/03/27 16:37:01;;;;;;;30.88;24.25;;;21.80;1.00;;;;;;4946954;28;20038;-39
2022/03/27 16:49:33;;;;;;;23.13;19.05;;;21.70;1.00;;;;;;4986900;28;20045;-40
2022/03/27 16:52:26;;;;;;;20.25;18.05;;;21.60;1.00;;;;;;4982985;28;20404;-40
2022/03/27 16:54:52;;;;;;;21.90;18.25;;;21.50;1.00;;;;;;4974767;28;20443;-40
2022/03/27 16:57:17;;;;;;;25.95;18.75;;;21.40;1.00;;;;;;4974018;28;20055;-40
2022/03/27 16:59:43;;;;;;;24.02;18.20;;;21.40;1.00;;;;;;4974892;28;20034;-39
2022/03/27 17:02:10;;;;;;;21.80;18.42;;;21.40;1.00;;;;;;4973872;28;20033;-39
2022/03/27 17:04:36;;;;;;;65.95;33.15;;;21.30;1.00;;;;;;4974583;28;20492;-40
2022/03/27 17:07:02;;;;;;;28.23;20.35;;;19.40;99.90;;;;;;4974158;28;20069;-40
2022/03/27 17:09:27;;;;;;;24.55;19.13;;;18.70;99.90;;;;;;4974395;28;20065;-41
2022/03/27 17:11:53;;;;;;;24.85;18.20;;;19.20;99.90;;;;;;4973970;28;20041;-39
2022/03/27 17:14:19;;;;;;;26.10;19.33;;;19.60;76.60;;;;;;4974584;28;20050;-40
2022/03/27 17:16:46;;;;;;;65.78;29.02;;;20.00;1.00;;;;;;4973506;28;20062;-40
2022/03/27 17:19:12;;;;;;;56.85;27.00;;;20.20;1.00;;;;;;4972995;28;20042;-39
2022/03/27 17:21:37;;;;;;;21.77;17.70;;;20.30;1.00;;;;;;4972461;28;20043;-40
2022/03/27 17:24:03;;;;;;;55.08;22.05;;;20.40;1.00;;;;;;4974384;28;20388;-39
2022/03/27 17:26:29;;;;;;;33.33;20.67;;;20.30;1.00;;;;;;4972401;28;20030;-40
2022/03/27 17:28:55;;;;;;;28.17;18.35;;;20.40;1.00;;;;;;4974121;28;20042;-39
2022/03/27 17:31:22;;;;;;;23.35;18.65;;;20.40;1.00;;;;;;4971756;28;20498;-39
2022/03/27 17:33:47;;;;;;;26.98;19.92;;;20.40;1.00;;;;;;4973520;28;20055;-39
2022/03/27 17:36:16;;;;;;;24.55;18.80;;;20.30;1.00;;;;;;4973081;28;20104;-40
2022/03/27 17:38:42;;;;;;;25.00;18.13;;;20.30;1.00;;;;;;4973916;28;20479;-40
2022/03/27 17:41:07;;;;;;;36.10;20.17;;;20.30;1.00;;;;;;4972876;28;20139;-39
2022/03/27 17:43:33;;;;;;;22.60;17.58;;;20.20;1.00;;;;;;4972748;28;20046;-39
2022/03/27 17:46:00;;;;;;;24.00;17.25;;;20.20;1.00;;;;;;4972383;28;20103;-39
2022/03/27 17:48:26;;;;;;;25.48;19.02;;;20.10;1.00;;;;;;4973526;28;20093;-39
2022/03/27 17:50:52;;;;;;;25.10;17.83;;;20.10;1.00;;;;;;4973798;28;20034;-39
2022/03/27 17:53:17;;;;;;;24.67;18.73;;;20.00;1.00;;;;;;4972744;28;20081;-39
2022/03/27 17:55:43;;;;;;;25.67;19.30;;;19.90;1.00;;;;;;4973709;28;20046;-39
2022/03/27 17:58:09;;;;;;;25.92;18.80;;;19.80;1.00;;;;;;4972859;28;20035;-39
2022/03/27 18:00:35;;;;;;;25.77;18.63;;;19.80;1.00;;;;;;4973656;28;20492;-38
2022/03/27 18:03:01;;;;;;;23.58;18.00;;;19.70;1.00;;;;;;4972571;28;20042;-39
2022/03/27 18:05:26;;;;;;;27.98;20.77;;;19.80;1.00;;;;;;4973440;28;20384;-39
2022/03/27 18:07:52;;;;;;;26.13;20.23;;;19.80;1.00;;;;;;4955606;28;20104;-39
2022/03/27 18:10:18;;;;;;;26.23;20.77;;;19.80;1.00;;;;;;4973497;28;20030;-39
2022/03/27 18:12:49;;;;;;;25.25;19.60;;;19.70;1.00;;;;;;4972500;28;20042;-39
2022/03/27 18:15:15;;;;;;;27.83;19.13;;;19.60;1.00;;;;;;4972758;28;20023;-39
2022/03/27 18:17:41;;;;;;;25.42;20.15;;;19.50;1.00;;;;;;4971081;28;20085;-39
2022/03/27 18:20:07;;;;;;;25.40;19.95;;;19.50;1.00;;;;;;4973314;28;20027;-38
2022/03/27 18:22:33;;;;;;;29.42;21.20;;;19.40;1.00;;;;;;4972506;28;20102;-39
2022/03/27 18:24:58;;;;;;;29.00;20.08;;;19.40;1.00;;;;;;4971924;28;20061;-39
2022/03/27 18:27:33;;;;;;;37.28;25.52;;;19.40;1.00;;;;;;4972274;28;20130;-39
2022/03/27 18:29:59;;;;;;;31.00;23.27;;;19.30;1.00;;;;;;4973519;28;20432;-39
2022/03/27 18:32:24;;;;;;;29.08;23.45;;;19.30;1.00;;;;;;4971332;28;20062;-39
2022/03/27 18:34:50;;;;;;;32.78;24.35;;;19.20;1.00;;;;;;4972279;28;20559;-39
2022/03/27 18:37:16;;;;;;;38.58;26.50;;;19.20;1.00;;;;;;4955159;28;20019;-39
2022/03/27 18:39:42;;;;;;;38.03;26.95;;;19.10;1.00;;;;;;4972919;28;20119;-39
2022/03/27 18:42:08;;;;;;;35.58;25.98;;;19.10;1.00;;;;;;4972223;28;20073;-39
2022/03/27 18:44:37;;;;;;;39.97;26.20;;;19.10;1.00;;;;;;4971635;28;20069;-38
2022/03/27 18:47:04;;;;;;;36.97;27.23;;;19.00;1.00;;;;;;4972458;28;20045;-39
2022/03/27 18:49:33;;;;;;;41.90;29.55;;;19.10;1.00;;;;;;4972897;28;20073;-38
2022/03/27 18:51:59;;;;;;;40.28;27.45;;;19.00;1.00;;;;;;4971927;28;20034;-39
2022/03/27 18:54:25;;;;;;;40.10;27.80;;;18.90;1.00;;;;;;4973541;28;20030;-39
2022/03/27 18:56:52;;;;;;;43.13;30.73;;;18.90;1.00;;;;;;4975835;28;20030;-38
2022/03/27 18:59:17;;;;;;;41.95;28.90;;;18.90;1.00;;;;;;4976531;28;20035;-38
2022/03/27 19:01:43;;;;;;;40.15;29.98;;;18.80;1.00;;;;;;4973092;28;20045;-39
2022/03/27 19:04:10;;;;;;;42.47;29.58;;;18.80;1.00;;;;;;4974183;28;20026;-39
2022/03/27 19:06:36;;;;;;;40.15;28.63;;;18.80;1.00;;;;;;4972877;28;20038;-39
2022/03/27 19:09:04;;;;;;;37.63;28.38;;;18.70;1.00;;;;;;4974337;28;20069;-39
2022/03/27 19:11:31;;;;;;;36.58;26.95;;;18.60;1.00;;;;;;4976430;28;20023;-39
2022/03/27 19:13:57;;;;;;;41.20;28.05;;;18.50;1.00;;;;;;4974703;28;20532;-39
2022/03/27 19:16:25;;;;;;;37.08;27.38;;;18.60;1.00;;;;;;4976063;28;20463;-39
2022/03/27 19:18:50;;;;;;;43.70;29.27;;;18.50;1.00;;;;;;4974089;28;20026;-39
2022/03/27 19:21:16;;;;;;;46.20;30.80;;;18.50;1.00;;;;;;4975038;28;20041;-39
2022/03/27 19:23:43;;;;;;;40.25;26.92;;;18.50;1.00;;;;;;4975201;28;20122;-39
2022/03/27 19:26:09;;;;;;;36.33;27.65;;;18.50;1.00;;;;;;4976330;28;20026;-39
2022/03/27 19:28:35;;;;;;;36.50;26.13;;;18.50;1.00;;;;;;4975591;28;20134;-39
2022/03/27 19:31:06;;;;;;;39.30;27.95;;;18.50;1.00;;;;;;4958464;28;20109;-40
2022/03/27 19:33:33;;;;;;;39.67;28.02;;;18.30;1.00;;;;;;4975246;28;20126;-39
2022/03/27 19:36:00;;;;;;;37.10;27.35;;;18.40;1.00;;;;;;4976285;28;20030;-39
2022/03/27 19:38:27;;;;;;;39.10;27.40;;;18.40;1.00;;;;;;4975471;28;20058;-38
2022/03/27 19:40:53;;;;;;;34.88;26.52;;;18.30;1.00;;;;;;4975810;28;20471;-39
2022/03/27 19:43:19;;;;;;;37.42;27.08;;;18.20;1.00;;;;;;4974613;28;20027;-39
2022/03/27 19:45:44;;;;;;;39.10;26.77;;;18.20;1.00;;;;;;4974052;28;20073;-39
2022/03/27 19:48:11;;;;;;;38.45;27.10;;;18.20;1.00;;;;;;4975761;28;20129;-39
2022/03/27 19:50:36;;;;;;;41.45;28.38;;;18.20;1.00;;;;;;4973658;28;20041;-39
2022/03/27 19:53:02;;;;;;;39.65;27.77;;;18.10;1.00;;;;;;4958641;28;20459;-39
2022/03/27 19:55:29;;;;;;;40.80;28.73;;;18.00;1.00;;;;;;4975304;28;20452;-39
2022/03/27 19:57:56;;;;;;;37.70;27.40;;;18.10;1.00;;;;;;4975769;28;20087;-39
2022/03/27 20:00:22;;;;;;;42.22;28.20;;;18.00;1.00;;;;;;4974792;28;20094;-39
2022/03/27 20:02:51;;;;;;;43.65;30.92;;;18.00;1.00;;;;;;4958112;28;20475;-39
2022/03/27 20:05:22;;;;;;;41.55;29.20;;;18.00;1.00;;;;;;4974805;28;20519;-39
2022/03/27 20:07:48;;;;;;;39.72;29.08;;;17.90;1.00;;;;;;4974530;28;20042;-39
2022/03/27 20:10:14;;;;;;;44.40;29.88;;;17.90;1.00;;;;;;4972223;28;20073;-38
2022/03/27 20:12:43;;;;;;;43.25;29.25;;;17.90;1.00;;;;;;4975727;28;20034;-38
2022/03/27 20:15:10;;;;;;;39.45;29.23;;;17.80;1.00;;;;;;4973151;28;20066;-39
2022/03/27 20:17:36;;;;;;;45.60;31.30;;;17.80;1.00;;;;;;4975462;28;20070;-39
2022/03/27 20:20:03;;;;;;;44.03;30.65;;;17.70;1.00;;;;;;4974875;28;20053;-39
2022/03/27 20:22:29;;;;;;;39.47;28.98;;;17.80;1.00;;;;;;4975221;28;20496;-38
2022/03/27 20:24:54;;;;;;;47.53;30.65;;;17.70;1.00;;;;;;4973618;28;20019;-38
2022/03/27 20:27:20;;;;;;;47.38;30.00;;;17.70;1.00;;;;;;4975031;28;20042;-38
2022/03/27 20:29:46;;;;;;;43.97;29.75;;;17.70;1.00;;;;;;4974443;28;20084;-38
2022/03/27 20:32:13;;;;;;;46.95;32.90;;;17.60;1.00;;;;;;4974387;28;20081;-38
2022/03/27 20:34:40;;;;;;;45.70;31.08;;;17.70;1.00;;;;;;4974229;28;20057;-38
2022/03/27 20:37:06;;;;;;;40.05;29.60;;;17.60;1.00;;;;;;4975346;28;20054;-38
2022/03/27 20:39:32;;;;;;;43.92;31.10;;;17.60;1.00;;;;;;4974205;28;20162;-38
2022/03/27 20:42:10;;;;;;;45.50;32.38;;;17.50;1.00;;;;;;4973695;28;20109;-39
2022/03/27 20:44:36;;;;;;;45.50;31.38;;;17.50;1.00;;;;;;4974277;28;20039;-39
2022/03/27 20:47:02;;;;;;;47.67;31.58;;;17.60;1.00;;;;;;4973639;28;20034;-39
2022/03/27 20:49:30;;;;;;;47.75;32.40;;;17.60;1.00;;;;;;4973880;28;20078;-39
2022/03/27 20:51:56;;;;;;;43.53;30.90;;;17.50;1.00;;;;;;4974693;28;20535;-39
2022/03/27 20:54:23;;;;;;;43.15;30.40;;;17.50;1.00;;;;;;4974062;28;20053;-39
2022/03/27 20:56:48;;;;;;;52.55;31.77;;;17.50;1.00;;;;;;4973459;28;20038;-39
2022/03/27 20:59:14;;;;;;;49.35;32.92;;;17.40;1.00;;;;;;4973919;28;20027;-39
2022/03/27 21:01:40;;;;;;;50.22;32.13;;;17.40;1.00;;;;;;4974806;28;20035;-39
2022/03/27 21:04:06;;;;;;;43.15;31.50;;;17.40;1.00;;;;;;4973809;28;20187;-39
2022/03/27 21:06:32;;;;;;;48.70;32.38;;;17.40;1.00;;;;;;4973125;28;20035;-39
2022/03/27 21:08:58;;;;;;;44.85;29.58;;;17.30;1.00;;;;;;4973572;28;20102;-39
2022/03/27 21:11:23;;;;;;;45.63;31.35;;;17.30;1.00;;;;;;4973138;28;20129;-39
2022/03/27 21:13:49;;;;;;;44.75;30.90;;;17.30;1.00;;;;;;4974483;28;20039;-39
2022/03/27 21:16:14;;;;;;;46.42;32.30;;;17.20;1.00;;;;;;4973898;28;20041;-39
2022/03/27 21:18:40;;;;;;;45.47;31.67;;;17.20;1.00;;;;;;4974192;28;20391;-39
2022/03/27 21:21:06;;;;;;;44.42;33.10;;;17.10;1.00;;;;;;4973596;28;20038;-39
2022/03/27 21:23:32;;;;;;;45.88;32.78;;;17.10;1.00;;;;;;4974308;28;20031;-39
2022/03/27 21:25:57;;;;;;;44.65;31.38;;;17.10;1.00;;;;;;4973423;28;20093;-39
2022/03/27 21:28:23;;;;;;;43.92;31.45;;;17.10;1.00;;;;;;4974066;28;20049;-39
2022/03/27 21:30:49;;;;;;;48.13;32.22;;;17.20;1.00;;;;;;4973505;28;20490;-38
2022/03/27 21:33:14;;;;;;;45.00;32.30;;;17.10;1.00;;;;;;4972300;28;20170;-38
2022/03/27 21:35:40;;;;;;;46.55;32.70;;;17.10;1.00;;;;;;4973511;28;20117;-39
2022/03/27 21:38:06;;;;;;;46.47;32.15;;;17.10;1.00;;;;;;4974135;28;20035;-38
2022/03/27 21:40:32;;;;;;;45.85;32.95;;;17.00;1.00;;;;;;4973070;28;20042;-38
2022/03/27 21:42:59;;;;;;;49.50;32.55;;;17.10;1.00;;;;;;4973768;28;20029;-38
2022/03/27 21:45:25;;;;;;;45.88;31.77;;;17.00;1.00;;;;;;4971491;28;20035;-38
2022/03/27 21:47:51;;;;;;;49.80;32.90;;;17.00;1.00;;;;;;4973848;28;20090;-39
2022/03/27 21:50:17;;;;;;;44.70;31.15;;;16.90;1.00;;;;;;4972868;28;20114;-39
2022/03/27 21:52:42;;;;;;;47.30;31.52;;;16.80;1.00;;;;;;4973046;28;20031;-39
2022/03/27 21:55:09;;;;;;;48.78;33.20;;;16.90;1.00;;;;;;4973007;28;20038;-39
2022/03/27 21:57:35;;;;;;;52.03;32.25;;;17.00;1.00;;;;;;4972806;28;20031;-39
2022/03/27 22:00:01;;;;;;;46.47;32.70;;;17.00;1.00;;;;;;4971273;28;20053;-39
2022/03/27 22:02:27;;;;;;;44.53;31.35;;;17.00;1.00;;;;;;4973515;28;20031;-39
2022/03/27 22:04:53;;;;;;;44.78;31.40;;;16.90;1.00;;;;;;4972633;28;20126;-39
2022/03/27 22:07:20;;;;;;;50.75;31.33;;;16.80;1.00;;;;;;4972279;28;20448;-40
2022/03/27 22:09:46;;;;;;;46.10;31.40;;;16.80;1.00;;;;;;4955267;28;20031;-39
2022/03/27 22:12:11;;;;;;;48.75;31.63;;;16.70;1.30;;;;;;4973373;28;20031;-38
2022/03/27 22:14:37;;;;;;;45.20;31.67;;;16.70;1.30;;;;;;4969995;28;20100;-39
2022/03/27 22:17:06;;;;;;;49.58;33.40;;;16.70;1.40;;;;;;4951265;28;20041;-39
2022/03/27 22:19:31;;;;;;;47.42;33.72;;;16.60;1.40;;;;;;4968986;28;20031;-39
2022/03/27 22:21:57;;;;;;;54.20;34.10;;;16.70;1.00;;;;;;4971746;28;20099;-39
2022/03/27 22:24:23;;;;;;;55.72;34.22;;;16.70;1.00;;;;;;4973227;28;20106;-39
2022/03/27 22:26:48;;;;;;;46.85;32.35;;;16.70;1.00;;;;;;4972515;28;20046;-39
2022/03/27 22:29:14;;;;;;;48.90;33.20;;;16.60;1.20;;;;;;4972000;28;20054;-39
2022/03/27 22:31:39;;;;;;;43.38;31.40;;;16.60;1.00;;;;;;4972438;28;20031;-38
2022/03/27 22:34:05;;;;;;;46.33;30.65;;;16.60;1.00;;;;;;4971580;28;20066;-38
2022/03/27 22:36:32;;;;;;;49.20;31.08;;;16.50;1.00;;;;;;4971781;28;20030;-38
2022/03/27 22:38:58;;;;;;;44.25;30.73;;;16.50;1.20;;;;;;4973014;28;20441;-39
2022/03/27 22:41:25;;;;;;;45.10;30.38;;;16.50;1.00;;;;;;4972404;28;20041;-38
2022/03/27 22:43:51;;;;;;;43.78;29.60;;;16.50;1.00;;;;;;4971931;28;20023;-38
2022/03/27 22:46:17;;;;;;;42.70;29.95;;;16.50;1.00;;;;;;4972315;28;20026;-38
2022/03/27 22:48:42;;;;;;;42.22;29.73;;;16.40;1.00;;;;;;4973014;28;20038;-38
2022/03/27 22:51:08;;;;;;;42.92;31.05;;;16.40;1.00;;;;;;4971125;28;20042;-38
2022/03/27 22:53:35;;;;;;;47.50;30.58;;;16.40;1.00;;;;;;4972868;28;20124;-39
2022/03/27 22:56:01;;;;;;;47.60;29.63;;;16.40;1.00;;;;;;4972983;28;20459;-38
2022/03/27 22:58:26;;;;;;;46.45;29.75;;;16.40;1.40;;;;;;4969389;28;20058;-38
2022/03/27 23:00:54;;;;;;;44.10;29.08;;;16.30;1.50;;;;;;4972977;28;20106;-38
2022/03/27 23:03:20;;;;;;;46.97;30.13;;;16.40;1.40;;;;;;4971989;28;20519;-38
2022/03/27 23:05:46;;;;;;;49.15;29.90;;;16.30;1.50;;;;;;4972787;28;20054;-39
2022/03/27 23:08:12;;;;;;;46.55;29.92;;;16.20;1.70;;;;;;4970738;28;20081;-39
2022/03/27 23:10:38;;;;;;;41.30;29.50;;;16.20;1.50;;;;;;4972771;28;20118;-39
2022/03/27 23:13:03;;;;;;;50.30;30.65;;;16.30;1.10;;;;;;4971499;28;20046;-38
2022/03/27 23:15:29;;;;;;;44.38;29.55;;;16.30;1.30;;;;;;4972853;28;20441;-39
2022/03/27 23:17:55;;;;;;;43.85;28.30;;;16.30;1.00;;;;;;4972050;28;20101;-38
2022/03/27 23:20:21;;;;;;;39.03;27.90;;;16.20;1.00;;;;;;4972688;28;20031;-39
2022/03/27 23:22:48;;;;;;;42.08;28.83;;;16.20;1.40;;;;;;4972060;28;20494;-38
2022/03/27 23:25:15;;;;;;;42.53;27.83;;;16.20;1.60;;;;;;4972822;28;20023;-39
2022/03/27 23:27:42;;;;;;;45.60;29.08;;;16.10;2.00;;;;;;4971801;28;20069;-38
2022/03/27 23:30:08;;;;;;;43.67;28.63;;;16.20;1.80;;;;;;4969528;28;20443;-38
2022/03/27 23:32:34;;;;;;;43.13;28.95;;;16.10;1.70;;;;;;4971882;28;20070;-39
2022/03/27 23:35:00;;;;;;;38.90;28.13;;;16.00;2.10;;;;;;4972289;28;20113;-38
2022/03/27 23:37:27;;;;;;;46.90;29.52;;;16.10;2.10;;;;;;4971798;28;20042;-38
2022/03/27 23:39:53;;;;;;;43.88;28.92;;;16.10;2.20;;;;;;4972158;28;20122;-38
2022/03/27 23:42:19;;;;;;;45.63;29.70;;;16.10;1.30;;;;;;4974491;28;20027;-38
2022/03/27 23:44:44;;;;;;;42.80;28.23;;;16.10;1.20;;;;;;4976008;28;20034;-39
2022/03/27 23:47:10;;;;;;;45.88;29.55;;;16.00;1.00;;;;;;4975252;28;20504;-39
2022/03/27 23:49:36;;;;;;;38.40;27.25;;;16.00;1.30;;;;;;4958264;28;20046;-39
2022/03/27 23:52:05;;;;;;;42.72;29.08;;;16.00;1.00;;;;;;4975365;28;20019;-39
2022/03/27 23:54:31;;;;;;;42.65;27.73;;;16.00;1.00;;;;;;4975779;28;20037;-39
2022/03/27 23:56:57;;;;;;;38.88;27.90;;;16.00;1.10;;;;;;4974830;28;20023;-39
2022/03/27 23:59:24;;;;;;;40.13;27.98;;;16.00;1.00;;;;;;4975540;28;20053;-39
